Time;durP1;ratioP1;P1;durP2;ratioP2;P2;SDS_P1;SDS_P2;PMS_P1;PMS_P2;Temp;Humidity;BMP_temperature;BMP_pressure;BME280_temperature;BME280_humidity;BME280_pressure;Samples;Min_cycle;Max_cycle;Signal;HPM_P1;HPM_P2
2022/06/25 00:01:25;;;;;;;3.58;1.90;;;25.80;58.60;26.50;100180.00;;;;5089297;28;20192;-42
2022/06/25 00:03:51;;;;;;;2.20;2.00;;;25.70;58.60;26.70;100181.00;;;;5089930;28;20181;-43
2022/06/25 00:06:17;;;;;;;2.35;2.15;;;25.70;58.70;26.60;100188.00;;;;5090273;28;20168;-42
2022/06/25 00:08:46;;;;;;;2.80;2.00;;;25.60;58.80;26.60;100176.00;;;;5089553;28;20626;-43
2022/06/25 00:12:31;;;;;;;2.67;2.13;;;25.60;59.00;26.60;100198.00;;;;5089129;28;20828;-43
2022/06/25 00:14:03;;;;;;;2.20;2.00;;;25.60;59.00;26.60;100190.00;;;;5089046;28;20200;-42
2022/06/25 00:16:28;;;;;;;2.38;2.00;;;25.60;59.00;26.60;100193.00;;;;5103934;28;20196;-43
2022/06/25 00:18:54;;;;;;;2.13;1.92;;;25.60;59.60;26.50;100198.00;;;;5088792;28;20165;-43
2022/06/25 00:21:20;;;;;;;2.15;2.00;;;25.60;59.10;26.50;100191.00;;;;5088746;28;20172;-43
2022/06/25 00:23:46;;;;;;;2.30;2.10;;;25.50;58.90;26.50;100201.00;;;;5089075;28;20260;-44
2022/06/25 00:26:11;;;;;;;4.82;2.30;;;25.50;60.10;26.50;100199.00;;;;5089510;28;20177;-44
2022/06/25 00:28:37;;;;;;;5.80;2.30;;;25.60;59.10;26.50;100201.00;;;;5089566;28;20174;-43
2022/06/25 00:31:03;;;;;;;2.08;1.98;;;25.50;58.90;26.50;100195.00;;;;5089663;28;20558;-43
2022/06/25 00:33:29;;;;;;;3.05;2.17;;;25.50;58.90;26.40;100207.00;;;;5088143;28;20786;-42
2022/06/25 00:35:54;;;;;;;2.40;2.15;;;25.50;59.00;26.40;100200.00;;;;5088380;28;20200;-42
2022/06/25 00:38:20;;;;;;;2.10;1.90;;;25.50;59.10;26.40;100210.00;;;;5088661;28;20173;-43
2022/06/25 00:40:46;;;;;;;4.07;2.40;;;25.50;59.20;26.40;100217.00;;;;5088665;28;20197;-43
2022/06/25 00:43:11;;;;;;;3.22;1.90;;;25.50;59.30;26.40;100217.00;;;;5088468;28;20173;-42
2022/06/25 00:45:37;;;;;;;2.25;2.00;;;25.50;59.30;26.40;100220.00;;;;5088216;28;20181;-44
2022/06/25 00:48:03;;;;;;;3.10;2.10;;;25.40;59.30;26.40;100210.00;;;;5087839;28;20173;-43
2022/06/25 00:50:29;;;;;;;4.15;2.20;;;25.40;59.40;26.30;100210.00;;;;5088583;28;20757;-43
2022/06/25 00:52:56;;;;;;;2.38;2.17;;;25.40;59.20;26.30;100222.00;;;;5087976;28;20169;-42
2022/06/25 00:55:23;;;;;;;3.15;2.00;;;25.40;59.20;26.30;100213.00;;;;5087643;28;20193;-43
2022/06/25 00:57:50;;;;;;;3.83;2.22;;;25.20;59.70;26.30;100158.00;;;;5087910;28;20184;-43
2022/06/25 01:00:17;;;;;;;4.50;2.10;;;25.20;59.80;26.30;100220.00;;;;5087969;28;20164;-44
2022/06/25 01:02:43;;;;;;;4.22;2.20;;;25.10;60.20;26.20;100220.00;;;;5087568;28;20225;-42
2022/06/25 01:05:11;;;;;;;3.03;2.25;;;25.10;60.20;26.20;100232.00;;;;5087593;28;20311;-43
2022/06/25 01:07:38;;;;;;;5.13;2.30;;;25.10;60.20;26.20;100227.00;;;;5087200;28;20210;-42
2022/06/25 01:10:06;;;;;;;2.42;2.10;;;25.10;60.10;26.20;100227.00;;;;5087797;28;20203;-43
2022/06/25 01:12:32;;;;;;;2.25;2.15;;;25.00;60.20;26.20;100233.00;;;;5103258;28;20256;-43
2022/06/25 01:15:16;;;;;;;3.38;2.30;;;25.00;60.50;26.10;100236.00;;;;5087657;28;20220;-44
2022/06/25 01:17:43;;;;;;;2.25;2.05;;;24.80;60.80;26.10;100234.00;;;;5102396;28;20281;-43
2022/06/25 01:20:09;;;;;;;2.92;2.30;;;25.00;60.60;26.10;100236.00;;;;5087714;28;20725;-42
2022/06/25 01:22:35;;;;;;;4.65;2.30;;;24.90;60.50;26.00;100250.00;;;;5087049;28;20181;-43
2022/06/25 01:25:01;;;;;;;3.78;2.10;;;24.90;60.80;26.00;100250.00;;;;5087287;28;20301;-43
2022/06/25 01:27:26;;;;;;;2.60;2.30;;;24.80;60.80;26.00;100247.00;;;;5087028;28;20314;-42
2022/06/25 01:29:52;;;;;;;3.38;2.20;;;24.70;61.10;26.00;100243.00;;;;5087251;28;20264;-43
2022/06/25 01:32:18;;;;;;;4.47;2.20;;;24.90;61.00;26.00;100250.00;;;;5087472;28;20173;-43
2022/06/25 01:34:44;;;;;;;2.55;2.20;;;24.80;61.50;26.00;100248.00;;;;5086970;28;20196;-43
2022/06/25 01:37:10;;;;;;;2.80;2.10;;;25.00;61.10;26.00;100254.00;;;;5087034;28;20286;-42
2022/06/25 01:39:35;;;;;;;3.05;2.15;;;25.00;60.70;26.00;100251.00;;;;5087551;28;20212;-43
2022/06/25 01:42:03;;;;;;;2.60;2.20;;;24.90;60.90;26.00;100254.00;;;;5105711;28;20165;-44
2022/06/25 01:44:29;;;;;;;3.13;2.42;;;24.90;60.80;25.90;100257.00;;;;5105878;28;20199;-43
2022/06/25 01:46:56;;;;;;;3.53;2.05;;;24.90;60.50;25.90;100248.00;;;;5098453;28;20794;-44
2022/06/25 01:49:22;;;;;;;2.30;2.10;;;25.00;60.60;25.90;100254.00;;;;5087993;28;20633;-43
2022/06/25 01:51:48;;;;;;;2.38;2.10;;;24.90;60.50;25.90;100253.00;;;;5087497;28;20212;-43
2022/06/25 01:54:15;;;;;;;2.15;2.00;;;24.90;60.60;25.90;100263.00;;;;5102477;28;20517;-43
2022/06/25 01:56:41;;;;;;;3.58;2.22;;;24.60;61.10;25.90;100213.00;;;;5085281;28;20209;-43
2022/06/25 01:59:06;;;;;;;3.65;2.17;;;24.70;61.00;25.90;100270.00;;;;5086437;28;20192;-43
2022/06/25 02:01:32;;;;;;;2.28;2.08;;;24.50;61.50;25.80;100268.00;;;;5086952;28;20248;-42
2022/06/25 02:03:58;;;;;;;4.00;2.30;;;24.40;61.80;25.80;100277.00;;;;5086734;28;20185;-43
2022/06/25 02:06:24;;;;;;;2.25;2.05;;;24.50;61.80;25.80;100271.00;;;;5086588;28;20173;-44
2022/06/25 02:08:50;;;;;;;3.67;2.28;;;24.40;61.90;25.70;100275.00;;;;5086612;28;20255;-43
2022/06/25 02:11:15;;;;;;;2.83;2.10;;;24.40;62.00;25.70;100272.00;;;;5086362;28;20173;-43
2022/06/25 02:13:41;;;;;;;2.10;1.90;;;24.30;62.00;25.70;100275.00;;;;5086589;28;20696;-44
2022/06/25 02:16:07;;;;;;;2.38;2.17;;;24.40;61.40;25.70;100268.00;;;;5086412;28;20227;-44
2022/06/25 02:18:33;;;;;;;3.13;2.20;;;24.50;61.40;25.70;100273.00;;;;5086316;28;20168;-43
2022/06/25 02:20:58;;;;;;;2.85;1.83;;;24.50;61.70;25.70;100278.00;;;;5086204;28;20238;-43
2022/06/25 02:23:24;;;;;;;3.23;2.00;;;24.60;61.20;25.70;100289.00;;;;5086366;28;20657;-42
2022/06/25 02:25:50;;;;;;;2.67;2.00;;;24.70;60.90;25.70;100281.00;;;;5086330;28;20200;-43
2022/06/25 02:28:16;;;;;;;3.88;2.05;;;24.80;60.70;25.70;100285.00;;;;5086379;28;20169;-43
2022/06/25 02:30:43;;;;;;;2.20;2.00;;;24.80;60.50;25.70;100285.00;;;;5086488;28;20169;-44
2022/06/25 02:33:11;;;;;;;2.38;2.00;;;24.80;60.40;25.70;100286.00;;;;5086267;28;20733;-43
2022/06/25 02:35:39;;;;;;;2.53;2.27;;;24.70;60.70;25.70;100288.00;;;;5086096;28;20189;-44
2022/06/25 02:38:05;;;;;;;2.33;2.00;;;24.70;60.80;25.70;100284.00;;;;5086180;28;20195;-42
2022/06/25 02:40:30;;;;;;;3.97;2.20;;;24.60;60.70;25.60;100286.00;;;;5086076;28;20642;-43
2022/06/25 02:42:56;;;;;;;2.00;1.90;;;24.50;61.10;25.60;100290.00;;;;5086015;28;20165;-44
2022/06/25 02:45:22;;;;;;;2.37;1.90;;;24.50;61.10;25.60;100300.00;;;;5087024;28;20213;-43
2022/06/25 02:47:48;;;;;;;2.30;2.10;;;24.40;61.50;25.60;100297.00;;;;5089662;28;20767;-43
2022/06/25 02:50:13;;;;;;;2.87;2.10;;;24.40;61.30;25.60;100308.00;;;;5090111;28;20161;-43
2022/06/25 02:52:39;;;;;;;2.47;2.20;;;24.30;61.40;25.50;100295.00;;;;5086920;28;20773;-42
2022/06/25 02:55:06;;;;;;;2.67;1.95;;;24.30;61.70;25.50;100309.00;;;;5085724;28;20188;-43
2022/06/25 03:00:16;;;;;;;3.47;2.00;;;24.40;61.20;25.50;100313.00;;;;5090354;28;20172;-44
2022/06/25 03:02:43;;;;;;;4.40;2.20;;;24.50;61.10;25.50;100307.00;;;;5090110;28;20196;-43
2022/06/25 03:05:09;;;;;;;5.83;2.30;;;24.40;60.90;25.50;100303.00;;;;5089795;28;20863;-43
2022/06/25 03:07:35;;;;;;;6.47;2.20;;;24.50;61.20;25.50;100306.00;;;;5089796;28;20226;-42
2022/06/25 03:10:01;;;;;;;7.17;2.30;;;24.50;61.00;25.50;100317.00;;;;5090039;28;20197;-44
2022/06/25 03:12:26;;;;;;;6.07;2.40;;;24.60;60.60;25.50;100317.00;;;;5089874;28;20193;-44
2022/06/25 03:14:52;;;;;;;4.47;2.10;;;24.60;60.40;25.50;100314.00;;;;5089556;28;20929;-44
2022/06/25 03:17:18;;;;;;;7.77;2.37;;;24.60;60.20;25.50;100313.00;;;;5089567;28;20199;-45
2022/06/25 03:19:43;;;;;;;7.07;2.27;;;24.60;60.30;25.50;100313.00;;;;5089702;28;20195;-44
2022/06/25 03:22:09;;;;;;;3.53;2.10;;;24.50;60.30;25.50;100312.00;;;;5089258;28;20538;-44
2022/06/25 03:24:35;;;;;;;3.60;2.30;;;24.50;60.30;25.40;100317.00;;;;5089286;28;20265;-43
2022/06/25 03:27:01;;;;;;;3.23;2.13;;;24.40;60.40;25.40;100317.00;;;;5089548;28;20177;-43
2022/06/25 03:29:26;;;;;;;2.87;2.20;;;24.40;60.50;25.30;100292.00;;;;5089406;28;20165;-44
2022/06/25 03:31:52;;;;;;;5.17;2.20;;;24.30;60.60;25.30;100316.00;;;;5089212;28;20197;-43
2022/06/25 03:34:18;;;;;;;2.50;2.00;;;24.30;60.60;25.30;100325.00;;;;5089422;28;20242;-44
2022/06/25 03:36:44;;;;;;;6.13;2.10;;;24.20;60.90;25.20;100335.00;;;;5089332;28;20208;-43
2022/06/25 03:39:09;;;;;;;2.40;2.20;;;24.10;60.90;25.20;100339.00;;;;5088853;28;20220;-44
2022/06/25 03:41:38;;;;;;;3.40;2.10;;;24.10;61.30;25.10;100333.00;;;;5089281;28;20165;-43
2022/06/25 03:44:05;;;;;;;3.13;2.07;;;24.10;61.30;25.10;100342.00;;;;5089153;28;20676;-43
2022/06/25 03:46:32;;;;;;;2.53;2.20;;;24.00;61.30;25.10;100340.00;;;;5089288;28;20206;-43
2022/06/25 03:48:59;;;;;;;2.30;2.10;;;24.00;61.30;25.10;100350.00;;;;5089041;28;20177;-44
2022/06/25 03:51:25;;;;;;;4.40;2.07;;;24.00;61.40;25.00;100349.00;;;;5088957;28;20177;-44
2022/06/25 03:53:51;;;;;;;3.23;2.33;;;23.90;61.40;25.00;100355.00;;;;5088788;28;20175;-43
2022/06/25 03:56:16;;;;;;;4.37;2.40;;;23.90;61.40;25.00;100344.00;;;;5088628;28;20692;-44
2022/06/25 03:58:42;;;;;;;3.70;2.10;;;24.00;61.30;25.00;100346.00;;;;5088938;28;20176;-43
2022/06/25 04:01:08;;;;;;;2.93;2.20;;;24.00;61.00;25.00;100355.00;;;;5089029;28;20641;-43
2022/06/25 04:03:34;;;;;;;3.67;2.10;;;24.10;60.80;25.00;100351.00;;;;5089027;28;20242;-44
2022/06/25 04:05:59;;;;;;;4.27;1.90;;;24.10;60.50;25.00;100350.00;;;;5088709;28;20165;-43
2022/06/25 04:08:25;;;;;;;2.20;2.00;;;24.20;60.40;25.10;100355.00;;;;5087636;28;20196;-44
2022/06/25 04:10:51;;;;;;;2.33;1.90;;;24.20;60.30;25.10;100361.00;;;;5088717;28;20192;-45
2022/06/25 04:13:16;;;;;;;2.83;2.10;;;24.20;60.20;25.10;100357.00;;;;5088061;28;20193;-43
2022/06/25 04:15:42;;;;;;;2.47;2.17;;;24.20;60.20;25.10;100350.00;;;;5088190;28;20779;-42
2022/06/25 04:18:08;;;;;;;2.17;1.80;;;24.20;60.10;25.10;100354.00;;;;5088713;28;20803;-44
2022/06/25 04:20:34;;;;;;;3.00;2.00;;;24.20;60.00;24.90;100357.00;;;;5088353;28;20734;-45
2022/06/25 04:23:00;;;;;;;3.20;2.10;;;24.20;60.20;25.10;100355.00;;;;5088290;28;20650;-44
2022/06/25 04:25:26;;;;;;;2.93;2.03;;;24.20;60.10;25.10;100354.00;;;;5088964;28;20703;-42
2022/06/25 04:30:36;;;;;;;2.97;2.20;;;24.20;60.20;25.10;100355.00;;;;5088849;28;20222;-44
2022/06/25 04:33:01;;;;;;;4.70;2.07;;;24.20;60.20;25.10;100359.00;;;;5088599;28;20173;-44
2022/06/25 04:35:27;;;;;;;3.30;2.00;;;24.10;60.10;25.00;100354.00;;;;5088190;28;20189;-42
2022/06/25 04:37:53;;;;;;;3.33;2.00;;;24.20;60.30;25.00;100364.00;;;;5079270;28;20962;-44
2022/06/25 04:40:18;;;;;;;2.40;1.97;;;24.20;60.20;25.10;100357.00;;;;5073311;28;20174;-44
2022/06/25 04:42:45;;;;;;;2.00;1.80;;;24.20;60.20;25.10;100361.00;;;;5067857;28;20170;-45
2022/06/25 04:45:11;;;;;;;5.00;2.10;;;24.20;60.20;25.00;100363.00;;;;5067431;28;20181;-43
2022/06/25 04:47:38;;;;;;;3.67;2.10;;;24.10;60.20;25.00;100361.00;;;;5067416;28;20545;-44
2022/06/25 04:50:05;;;;;;;2.30;1.90;;;24.10;60.10;25.00;100364.00;;;;5067636;28;20235;-44
2022/06/25 04:52:31;;;;;;;3.80;2.50;;;24.10;60.10;25.00;100353.00;;;;5066371;28;20240;-43
2022/06/25 04:54:57;;;;;;;3.10;2.20;;;24.10;60.30;25.00;100355.00;;;;5067464;28;20816;-44
2022/06/25 04:57:22;;;;;;;3.47;2.30;;;24.10;60.30;25.00;100361.00;;;;5066884;28;20251;-43
2022/06/25 04:59:48;;;;;;;2.57;2.30;;;24.10;60.40;25.00;100358.00;;;;5067572;28;20571;-43
2022/06/25 05:02:14;;;;;;;5.30;2.40;;;24.10;60.60;25.00;100349.00;;;;5069260;28;20558;-45
2022/06/25 05:04:39;;;;;;;3.27;2.37;;;24.10;60.50;25.00;100348.00;;;;5072573;28;20196;-45
2022/06/25 05:07:05;;;;;;;2.67;2.23;;;24.10;60.20;25.00;100356.00;;;;5070603;28;20176;-43
2022/06/25 05:09:31;;;;;;;4.20;2.20;;;24.10;60.30;25.00;100358.00;;;;5069775;28;20169;-44
2022/06/25 05:11:58;;;;;;;2.67;2.10;;;24.10;60.50;25.00;100363.00;;;;5066933;28;20181;-43
2022/06/25 05:14:23;;;;;;;3.10;2.00;;;24.10;60.80;25.00;100370.00;;;;5067364;28;20795;-43
2022/06/25 05:16:49;;;;;;;3.43;2.23;;;24.10;60.70;25.00;100377.00;;;;5065554;28;20216;-44
2022/06/25 05:19:15;;;;;;;2.73;2.30;;;24.10;61.30;25.00;100379.00;;;;5066557;28;20165;-44
2022/06/25 05:21:41;;;;;;;2.40;2.07;;;24.00;61.00;24.90;100378.00;;;;5066757;28;20314;-44
2022/06/25 05:24:06;;;;;;;2.43;2.23;;;24.00;60.50;24.90;100370.00;;;;5066804;28;20281;-44
2022/06/25 05:26:32;;;;;;;3.33;2.20;;;24.00;60.80;24.90;100372.00;;;;5066583;28;20237;-43
2022/06/25 05:28:58;;;;;;;3.93;2.27;;;24.00;60.80;24.90;100376.00;;;;5066568;28;20305;-43
2022/06/25 05:31:24;;;;;;;3.13;2.40;;;24.00;61.10;24.90;100380.00;;;;5066816;28;20575;-43
2022/06/25 05:33:50;;;;;;;2.50;2.30;;;24.00;60.60;24.90;100384.00;;;;5081745;28;20172;-43
2022/06/25 05:36:16;;;;;;;2.67;2.20;;;24.00;60.90;24.90;100391.00;;;;5085459;28;20671;-45
2022/06/25 05:38:42;;;;;;;3.23;2.13;;;24.00;61.70;24.90;100392.00;;;;5086461;28;20226;-44
2022/06/25 05:41:08;;;;;;;2.53;2.20;;;24.00;61.20;24.90;100395.00;;;;5080496;28;20174;-42
2022/06/25 05:43:37;;;;;;;4.67;2.20;;;24.00;61.10;24.90;100402.00;;;;5066410;28;20205;-43
2022/06/25 05:46:03;;;;;;;3.60;2.20;;;24.00;61.00;24.90;100393.00;;;;5065852;28;20219;-43
2022/06/25 05:48:29;;;;;;;2.43;2.00;;;23.90;61.00;24.90;100415.00;;;;5064151;28;20173;-45
2022/06/25 05:50:55;;;;;;;3.33;2.23;;;24.00;61.30;24.80;100404.00;;;;5077721;28;20633;-45
2022/06/25 05:53:21;;;;;;;4.27;2.23;;;24.00;61.50;24.80;100410.00;;;;5084297;28;20652;-44
2022/06/25 05:55:47;;;;;;;3.03;2.50;;;23.90;61.80;24.80;100403.00;;;;5084747;28;20196;-44
2022/06/25 05:58:13;;;;;;;4.80;2.30;;;24.00;62.00;24.80;100409.00;;;;5086326;28;20276;-44
2022/06/25 06:00:39;;;;;;;3.63;2.40;;;24.00;62.00;24.80;100406.00;;;;5086456;28;20188;-44
2022/06/25 06:03:05;;;;;;;3.17;2.37;;;23.90;61.80;24.80;100412.00;;;;5085788;28;20192;-44
2022/06/25 06:05:31;;;;;;;2.40;2.20;;;23.90;61.90;24.80;100417.00;;;;5085500;28;20193;-43
2022/06/25 06:07:57;;;;;;;2.23;2.03;;;23.90;61.60;24.80;100415.00;;;;5086141;28;20630;-44
2022/06/25 06:10:22;;;;;;;3.13;2.30;;;23.90;61.50;24.80;100411.00;;;;5086169;28;20668;-43
2022/06/25 06:12:48;;;;;;;4.37;2.60;;;23.90;62.00;24.80;100425.00;;;;5108170;28;20179;-45
2022/06/25 06:15:14;;;;;;;3.27;2.40;;;23.90;62.40;24.80;100426.00;;;;5109526;28;20223;-45
2022/06/25 06:17:40;;;;;;;2.63;2.10;;;23.90;62.30;24.80;100424.00;;;;5095519;28;20189;-46
2022/06/25 06:20:06;;;;;;;3.20;2.67;;;23.90;62.70;24.70;100426.00;;;;5086538;28;20177;-42
2022/06/25 06:22:32;;;;;;;3.23;2.50;;;23.80;62.70;24.70;100427.00;;;;5002883;28;21384;-43
2022/06/25 06:24:58;;;;;;;4.10;2.50;;;23.80;62.70;24.70;100426.00;;;;5086404;28;20193;-44
2022/06/25 06:27:24;;;;;;;4.53;2.50;;;23.70;62.90;24.70;100425.00;;;;5085237;28;20757;-43
2022/06/25 06:29:50;;;;;;;6.27;2.70;;;23.70;62.60;24.60;100430.00;;;;5092124;28;20203;-43
2022/06/25 06:32:16;;;;;;;2.70;2.30;;;23.80;62.70;24.70;100430.00;;;;5085167;28;20165;-44
2022/06/25 06:34:42;;;;;;;3.80;2.30;;;23.80;62.80;24.60;100425.00;;;;5085524;28;20249;-44
2022/06/25 06:37:08;;;;;;;3.13;2.40;;;23.80;63.10;24.60;100432.00;;;;5085316;28;20204;-43
2022/06/25 06:39:33;;;;;;;3.97;2.43;;;23.80;63.00;24.60;100426.00;;;;5085394;28;20195;-44
2022/06/25 06:41:59;;;;;;;3.07;2.47;;;23.80;63.80;24.60;100428.00;;;;5085691;28;20207;-45
2022/06/25 06:44:25;;;;;;;3.23;2.60;;;23.70;63.30;24.60;100431.00;;;;5085536;28;20335;-44
2022/06/25 06:46:51;;;;;;;2.63;2.43;;;23.70;63.30;24.60;100433.00;;;;5085717;28;20169;-45
2022/06/25 06:49:16;;;;;;;3.10;2.27;;;23.70;63.30;24.60;100433.00;;;;5084557;28;20169;-45
2022/06/25 06:51:42;;;;;;;2.73;2.40;;;23.70;63.00;24.60;100428.00;;;;5086077;28;20255;-43
2022/06/25 06:54:08;;;;;;;3.93;2.43;;;23.80;62.70;24.60;100437.00;;;;5085961;28;20242;-44
2022/06/25 06:56:33;;;;;;;3.80;2.30;;;23.80;62.60;24.60;100429.00;;;;5085423;28;20193;-44
2022/06/25 06:58:59;;;;;;;2.70;2.50;;;23.80;62.60;24.60;100429.00;;;;5085493;28;20182;-43
2022/06/25 07:01:25;;;;;;;2.53;2.23;;;23.80;62.60;24.60;100432.00;;;;5085819;28;20626;-44
2022/06/25 07:03:51;;;;;;;3.70;2.43;;;23.80;63.00;24.60;100425.00;;;;5085533;28;20165;-44
2022/06/25 07:06:17;;;;;;;6.30;2.50;;;23.80;62.60;24.60;100440.00;;;;5101154;28;20264;-44
2022/06/25 07:08:43;;;;;;;3.30;2.30;;;23.80;63.00;24.60;100444.00;;;;5084930;28;20199;-44
2022/06/25 07:13:53;;;;;;;2.70;2.30;;;23.80;62.80;24.60;100435.00;;;;5085103;28;20856;-45
2022/06/25 07:16:20;;;;;;;2.70;2.50;;;23.80;62.60;24.60;100437.00;;;;5085113;28;20661;-45
2022/06/25 07:18:46;;;;;;;2.30;2.10;;;23.80;62.60;24.60;100430.00;;;;5084023;28;20180;-44
2022/06/25 07:21:12;;;;;;;2.47;2.27;;;23.80;62.50;24.60;100445.00;;;;5086752;28;20173;-44
2022/06/25 07:23:37;;;;;;;3.13;2.50;;;23.80;62.60;24.60;100434.00;;;;5086052;28;20208;-45
2022/06/25 07:26:03;;;;;;;3.83;2.33;;;23.80;62.60;24.60;100430.00;;;;5101049;28;20222;-44
2022/06/25 07:28:29;;;;;;;3.30;2.17;;;23.80;62.50;24.60;100430.00;;;;5083688;28;20234;-43
2022/06/25 07:30:54;;;;;;;3.17;2.43;;;23.80;62.50;24.60;100439.00;;;;5085401;28;20181;-45
2022/06/25 07:33:20;;;;;;;3.80;2.37;;;23.80;62.50;24.60;100439.00;;;;5085494;28;20184;-43
2022/06/25 07:35:46;;;;;;;4.00;2.50;;;23.80;62.50;24.60;100434.00;;;;5084627;28;20221;-42
2022/06/25 07:38:12;;;;;;;3.27;2.50;;;23.80;62.20;24.60;100430.00;;;;5085220;28;20223;-45
2022/06/25 07:40:37;;;;;;;4.87;2.47;;;23.80;62.10;24.60;100433.00;;;;5085466;28;20169;-44
2022/06/25 07:43:03;;;;;;;3.00;2.20;;;23.70;61.80;24.60;100440.00;;;;5088821;28;20540;-44
2022/06/25 07:45:29;;;;;;;2.70;2.30;;;23.70;61.70;24.60;100433.00;;;;5088831;28;20676;-42
2022/06/25 07:47:54;;;;;;;2.70;2.30;;;23.70;61.80;24.60;100435.00;;;;5088928;28;20837;-45
2022/06/25 07:53:05;;;;;;;3.53;2.30;;;23.80;61.50;24.50;100428.00;;;;5089041;28;20672;-44
2022/06/25 07:55:30;;;;;;;2.97;2.40;;;23.80;61.50;24.50;100428.00;;;;5088206;28;20201;-45
2022/06/25 07:57:56;;;;;;;4.87;2.47;;;23.80;61.40;24.50;100432.00;;;;5091113;28;20200;-42
2022/06/25 08:00:22;;;;;;;3.90;2.53;;;23.80;61.40;24.50;100431.00;;;;5091022;28;20243;-43
2022/06/25 08:02:48;;;;;;;3.10;2.27;;;23.80;61.10;24.50;100426.00;;;;5091636;28;20218;-44
2022/06/25 08:05:14;;;;;;;4.40;2.40;;;23.70;61.00;24.50;100439.00;;;;5088733;28;20280;-44
2022/06/25 08:07:40;;;;;;;3.20;2.30;;;23.80;61.20;24.50;100423.00;;;;5087997;28;20717;-44
2022/06/25 08:10:06;;;;;;;3.30;2.30;;;23.70;61.10;24.60;100431.00;;;;5005321;28;21731;-43
2022/06/25 08:12:32;;;;;;;3.13;2.30;;;23.70;61.20;24.50;100432.00;;;;5088121;28;20189;-43
2022/06/25 08:14:59;;;;;;;3.90;2.30;;;23.70;61.40;24.50;100427.00;;;;5093158;28;20570;-43
2022/06/25 08:17:24;;;;;;;2.50;2.30;;;23.70;61.30;24.50;100420.00;;;;5086675;28;20285;-48
2022/06/25 08:19:50;;;;;;;2.77;2.27;;;23.70;60.80;24.50;100427.00;;;;5069252;28;20825;-44
2022/06/25 08:22:16;;;;;;;2.63;2.37;;;23.70;61.00;24.50;100425.00;;;;5092519;28;20472;-46
2022/06/25 08:24:42;;;;;;;3.27;2.30;;;23.70;60.80;24.50;100428.00;;;;5092257;28;20201;-45
2022/06/25 08:27:07;;;;;;;2.73;2.23;;;23.70;60.60;24.50;100427.00;;;;5082223;28;20180;-42
2022/06/25 08:29:33;;;;;;;2.73;2.30;;;23.70;60.70;24.60;100423.00;;;;5088226;28;20179;-44
2022/06/25 08:31:59;;;;;;;2.57;2.27;;;23.70;60.70;24.60;100431.00;;;;5088536;28;20173;-43
2022/06/25 08:34:25;;;;;;;4.57;2.30;;;23.70;60.70;24.60;100428.00;;;;5088412;28;20472;-43
2022/06/25 08:36:50;;;;;;;5.97;2.57;;;23.70;60.60;24.60;100427.00;;;;5088380;28;20185;-42
2022/06/25 08:39:16;;;;;;;3.87;2.30;;;23.80;61.20;24.60;100415.00;;;;5087773;28;20173;-43
2022/06/25 08:41:42;;;;;;;3.37;2.60;;;23.80;61.50;24.60;100425.00;;;;5086961;28;20181;-44
2022/06/25 08:44:08;;;;;;;5.97;2.50;;;23.70;61.20;24.60;100440.00;;;;5103590;28;20586;-43
2022/06/25 08:46:34;;;;;;;4.27;2.43;;;23.60;59.70;24.60;100439.00;;;;5103647;28;20193;-43
2022/06/25 08:49:00;;;;;;;4.27;2.60;;;23.60;60.90;24.60;100437.00;;;;5103131;28;20177;-43
2022/06/25 08:51:27;;;;;;;6.13;2.30;;;23.70;61.30;24.60;100406.00;;;;5103409;28;20263;-43
2022/06/25 08:53:53;;;;;;;3.70;2.20;;;23.60;60.50;24.60;100421.00;;;;5102001;28;20213;-44
2022/06/25 08:56:19;;;;;;;4.70;2.57;;;23.60;61.30;24.60;100419.00;;;;5103464;28;20204;-43
2022/06/25 08:58:44;;;;;;;5.63;2.77;;;23.70;61.40;24.60;100417.00;;;;5086984;28;20256;-42
2022/06/25 09:01:10;;;;;;;3.67;2.63;;;23.80;60.20;24.70;100414.00;;;;5084255;28;20181;-44
2022/06/25 09:03:39;;;;;;;4.83;2.40;;;23.80;60.70;24.70;100420.00;;;;5087724;28;20191;-43
2022/06/25 09:06:15;;;;;;;2.90;2.30;;;23.80;61.10;24.70;100414.00;;;;5086887;28;20594;-44
2022/06/25 09:08:44;;;;;;;6.00;2.50;;;23.80;60.70;24.70;100421.00;;;;5085617;28;20185;-42
2022/06/25 09:11:11;;;;;;;7.13;2.57;;;23.80;60.70;24.70;100417.00;;;;4889750;28;20169;-44
2022/06/25 09:13:36;;;;;;;4.07;2.40;;;23.80;61.30;24.70;100412.00;;;;5087419;28;20187;-44
2022/06/25 09:16:02;;;;;;;6.93;2.60;;;23.80;61.70;24.80;100416.00;;;;5086401;28;20181;-43
2022/06/25 09:18:28;;;;;;;3.50;2.30;;;23.80;61.90;24.80;100412.00;;;;5086700;28;20170;-43
2022/06/25 09:21:09;;;;;;;3.37;2.50;;;23.90;61.50;24.80;100407.00;;;;5067181;28;20176;-43
2022/06/25 09:24:00;;;;;;;3.53;2.30;;;23.90;61.60;24.90;100410.00;;;;5087038;28;20769;-43
2022/06/25 09:26:26;;;;;;;4.00;2.30;;;23.80;61.30;24.90;100419.00;;;;5099637;28;20697;-43
2022/06/25 09:28:51;;;;;;;4.30;2.37;;;23.90;61.40;24.90;100420.00;;;;5086782;28;20175;-44
2022/06/25 09:31:50;;;;;;;3.37;2.43;;;23.80;60.80;24.90;100419.00;;;;5088512;28;20169;-43
2022/06/25 09:34:15;;;;;;;3.47;2.37;;;23.80;60.30;24.90;100413.00;;;;5087852;28;20608;-43
2022/06/25 09:36:41;;;;;;;3.00;2.37;;;23.80;60.00;24.90;100399.00;;;;5093046;28;20189;-43
2022/06/25 09:39:07;;;;;;;3.13;2.20;;;23.80;60.50;24.90;100400.00;;;;5107812;28;20168;-42
2022/06/25 09:41:49;;;;;;;2.40;2.10;;;23.80;60.20;24.90;100398.00;;;;5102299;28;20169;-43
2022/06/25 09:44:18;;;;;;;4.57;2.33;;;23.90;61.10;24.90;100399.00;;;;5102819;28;20200;-42
2022/06/25 09:46:57;;;;;;;4.07;2.40;;;23.90;60.30;24.90;100405.00;;;;5087148;28;20579;-43
2022/06/25 09:49:24;;;;;;;3.97;2.53;;;23.90;61.40;25.00;100399.00;;;;5087152;28;20591;-43
2022/06/25 09:52:02;;;;;;;2.30;2.10;;;24.00;61.20;25.00;100407.00;;;;5087366;28;20326;-43
2022/06/25 09:54:28;;;;;;;5.03;2.03;;;24.10;61.10;25.00;100415.00;;;;5086860;28;20288;-44
2022/06/25 09:56:54;;;;;;;3.00;2.30;;;24.00;60.90;25.00;100412.00;;;;5086454;28;20663;-44
2022/06/25 09:59:22;;;;;;;2.53;2.20;;;24.00;61.20;25.00;100408.00;;;;5102324;28;20523;-42
2022/06/25 10:01:48;;;;;;;4.13;2.10;;;24.00;60.70;25.00;100411.00;;;;5101983;28;20169;-43
2022/06/25 10:04:13;;;;;;;4.57;2.20;;;24.10;60.70;25.10;100412.00;;;;5102316;28;20192;-43
2022/06/25 10:06:39;;;;;;;2.97;2.27;;;24.10;60.60;25.10;100406.00;;;;5101213;28;20173;-44
2022/06/25 10:09:06;;;;;;;2.60;2.30;;;24.10;60.90;25.10;100407.00;;;;5101987;28;20241;-44
2022/06/25 10:11:34;;;;;;;2.57;1.97;;;24.20;60.90;25.10;100406.00;;;;5086426;28;20173;-44
2022/06/25 10:13:59;;;;;;;4.10;2.30;;;24.10;60.90;25.10;100408.00;;;;5086777;28;20236;-42
2022/06/25 10:16:26;;;;;;;3.20;2.30;;;24.10;61.00;25.20;100337.00;;;;5101900;28;20654;-43
2022/06/25 10:18:52;;;;;;;3.67;2.30;;;24.20;60.90;25.20;100407.00;;;;5086112;28;20180;-43
2022/06/25 10:21:19;;;;;;;2.47;2.20;;;24.20;61.30;25.20;100400.00;;;;5086318;28;20538;-43
2022/06/25 10:23:48;;;;;;;4.00;2.40;;;24.30;61.30;25.20;100401.00;;;;5086017;28;20187;-44
2022/06/25 10:26:14;;;;;;;3.20;2.30;;;24.30;61.00;25.20;100408.00;;;;5102502;28;20200;-43
2022/06/25 10:28:41;;;;;;;3.73;2.37;;;24.30;60.70;25.30;100396.00;;;;5086012;28;20208;-42
2022/06/25 10:31:11;;;;;;;4.43;2.47;;;24.30;60.70;25.30;100403.00;;;;5087500;28;20196;-43
2022/06/25 10:33:54;;;;;;;3.67;2.20;;;24.30;60.80;25.30;100399.00;;;;5087513;28;20637;-44
2022/06/25 10:36:45;;;;;;;2.87;2.20;;;24.30;60.40;25.30;100393.00;;;;5086713;28;20292;-43
2022/06/25 10:39:26;;;;;;;3.27;2.30;;;24.30;60.30;25.30;100393.00;;;;5086175;28;20200;-44
2022/06/25 10:45:05;;;;;;;3.30;2.30;;;24.30;59.60;25.20;100391.00;;;;5088671;28;20341;-43
2022/06/25 10:47:48;;;;;;;3.83;2.30;;;24.20;59.40;25.30;100394.00;;;;5085541;28;20175;-44
2022/06/25 10:50:20;;;;;;;2.63;2.20;;;24.30;59.60;25.30;100385.00;;;;5101439;28;20256;-42
2022/06/25 10:53:01;;;;;;;2.37;2.07;;;24.30;59.50;25.30;100379.00;;;;5086021;28;20599;-43
2022/06/25 10:55:27;;;;;;;4.57;2.20;;;24.40;60.10;25.30;100395.00;;;;5086359;28;20189;-43
2022/06/25 10:58:17;;;;;;;2.97;2.33;;;24.40;59.90;25.40;100384.00;;;;5085966;28;20208;-44
2022/06/25 11:00:51;;;;;;;3.13;2.30;;;24.50;59.30;25.40;100391.00;;;;5099034;28;20157;-42